sensor_id;sensor_type;location;lat;lon;timestamp;pressure;altitude;pressure_sealevel;temperature;humidity
70900;BME280;67902;52.154;5.430;2023-04-15T00:01:35;100965.78;;;8.89;62.99
70900;BME280;67902;52.154;5.430;2023-04-15T00:04:02;100965.66;;;8.84;63.48
70900;BME280;67902;52.154;5.430;2023-04-15T00:06:30;100967.72;;;8.82;63.06
70900;BME280;67902;52.154;5.430;2023-04-15T00:08:56;100972.53;;;8.80;64.95
70900;BME280;67902;52.154;5.430;2023-04-15T00:11:22;100980.84;;;8.79;65.85
70900;BME280;67902;52.154;5.430;2023-04-15T00:13:49;100973.09;;;8.70;66.29
70900;BME280;67902;52.154;5.430;2023-04-15T00:16:16;100971.78;;;8.61;66.25
70900;BME280;67902;52.154;5.430;2023-04-15T00:18:42;100977.69;;;8.52;66.58
70900;BME280;67902;52.154;5.430;2023-04-15T00:21:09;100970.44;;;8.34;67.10
70900;BME280;67902;52.154;5.430;2023-04-15T00:23:35;100972.31;;;8.34;66.63
70900;BME280;67902;52.154;5.430;2023-04-15T00:26:02;100970.69;;;8.33;65.61
70900;BME280;67902;52.154;5.430;2023-04-15T00:28:28;100963.44;;;8.27;67.55
70900;BME280;67902;52.154;5.430;2023-04-15T00:30:56;100966.22;;;8.20;66.52
70900;BME280;67902;52.154;5.430;2023-04-15T00:33:22;100963.38;;;8.15;67.82
70900;BME280;67902;52.154;5.430;2023-04-15T00:35:49;100970.06;;;8.12;66.84
70900;BME280;67902;52.154;5.430;2023-04-15T00:38:16;100963.63;;;8.13;66.18
70900;BME280;67902;52.154;5.430;2023-04-15T00:40:43;100968.56;;;8.16;66.34
70900;BME280;67902;52.154;5.430;2023-04-15T00:43:09;100967.94;;;8.14;66.56
70900;BME280;67902;52.154;5.430;2023-04-15T00:45:35;100963.09;;;8.05;67.82
70900;BME280;67902;52.154;5.430;2023-04-15T00:48:02;100963.38;;;7.97;67.94
70900;BME280;67902;52.154;5.430;2023-04-15T00:50:30;100964.50;;;7.89;70.01
70900;BME280;67902;52.154;5.430;2023-04-15T00:52:56;100966.34;;;7.89;68.50
70900;BME280;67902;52.154;5.430;2023-04-15T00:55:22;100976.88;;;7.97;67.90
70900;BME280;67902;52.154;5.430;2023-04-15T00:57:49;100971.03;;;8.00;66.73
70900;BME280;67902;52.154;5.430;2023-04-15T01:00:15;100976.63;;;7.98;67.79
70900;BME280;67902;52.154;5.430;2023-04-15T01:02:42;100976.44;;;8.00;68.77
70900;BME280;67902;52.154;5.430;2023-04-15T01:05:09;100981.88;;;7.93;68.44
70900;BME280;67902;52.154;5.430;2023-04-15T01:07:35;100973.66;;;7.88;68.63
70900;BME280;67902;52.154;5.430;2023-04-15T01:10:03;100975.34;;;7.83;68.20
70900;BME280;67902;52.154;5.430;2023-04-15T01:12:31;100973.47;;;7.83;69.23
70900;BME280;67902;52.154;5.430;2023-04-15T01:14:58;100976.16;;;7.83;68.14
70900;BME280;67902;52.154;5.430;2023-04-15T01:17:25;100982.03;;;7.80;68.28
70900;BME280;67902;52.154;5.430;2023-04-15T01:19:51;100971.69;;;7.77;68.05
70900;BME280;67902;52.154;5.430;2023-04-15T01:22:18;100972.56;;;7.71;68.36
70900;BME280;67902;52.154;5.430;2023-04-15T01:25:04;100981.28;;;7.67;68.76
70900;BME280;67902;52.154;5.430;2023-04-15T01:27:32;100972.22;;;7.61;69.25
70900;BME280;67902;52.154;5.430;2023-04-15T01:29:58;100982.41;;;7.59;69.69
70900;BME280;67902;52.154;5.430;2023-04-15T01:32:25;100969.91;;;7.46;69.57
70900;BME280;67902;52.154;5.430;2023-04-15T01:34:52;100968.72;;;7.36;69.94
70900;BME280;67902;52.154;5.430;2023-04-15T01:37:18;100982.88;;;7.25;70.70
70900;BME280;67902;52.154;5.430;2023-04-15T01:39:45;100974.81;;;7.25;70.97
70900;BME280;67902;52.154;5.430;2023-04-15T01:42:11;100977.50;;;7.25;71.30
70900;BME280;67902;52.154;5.430;2023-04-15T01:44:38;100974.06;;;7.18;71.50
70900;BME280;67902;52.154;5.430;2023-04-15T01:47:04;100980.31;;;7.12;71.42
70900;BME280;67902;52.154;5.430;2023-04-15T01:49:32;100981.16;;;7.06;71.41
70900;BME280;67902;52.154;5.430;2023-04-15T01:51:58;100980.59;;;6.97;72.76
70900;BME280;67902;52.154;5.430;2023-04-15T01:54:25;100986.09;;;6.84;72.73
70900;BME280;67902;52.154;5.430;2023-04-15T01:56:52;100983.66;;;6.69;73.01
70900;BME280;67902;52.154;5.430;2023-04-15T01:59:19;100983.94;;;6.61;74.40
70900;BME280;67902;52.154;5.430;2023-04-15T02:01:45;100988.28;;;6.62;73.45
70900;BME280;67902;52.154;5.430;2023-04-15T02:04:11;100983.31;;;6.59;73.69
70900;BME280;67902;52.154;5.430;2023-04-15T02:06:44;100975.28;;;6.46;74.28
70900;BME280;67902;52.154;5.430;2023-04-15T02:09:11;100984.25;;;6.33;73.92
70900;BME280;67902;52.154;5.430;2023-04-15T02:11:37;100993.56;;;6.31;75.23
70900;BME280;67902;52.154;5.430;2023-04-15T02:14:04;100985.94;;;6.28;74.90
70900;BME280;67902;52.154;5.430;2023-04-15T02:16:32;100990.47;;;6.27;75.02
70900;BME280;67902;52.154;5.430;2023-04-15T02:18:59;100989.66;;;6.27;76.26
70900;BME280;67902;52.154;5.430;2023-04-15T02:21:26;100996.69;;;6.28;76.21
70900;BME280;67902;52.154;5.430;2023-04-15T02:23:52;100993.81;;;6.23;75.80
70900;BME280;67902;52.154;5.430;2023-04-15T02:26:22;100994.47;;;6.12;75.71
70900;BME280;67902;52.154;5.430;2023-04-15T02:28:50;100998.19;;;6.04;75.64
70900;BME280;67902;52.154;5.430;2023-04-15T02:31:16;101000.09;;;5.91;75.40
70900;BME280;67902;52.154;5.430;2023-04-15T02:33:43;100998.22;;;5.78;75.58
70900;BME280;67902;52.154;5.430;2023-04-15T02:36:09;101004.84;;;5.69;76.17
70900;BME280;67902;52.154;5.430;2023-04-15T02:38:37;101008.75;;;5.73;77.57
70900;BME280;67902;52.154;5.430;2023-04-15T02:41:05;101013.09;;;5.80;77.02
70900;BME280;67902;52.154;5.430;2023-04-15T02:43:32;101020.72;;;5.70;77.70
70900;BME280;67902;52.154;5.430;2023-04-15T02:45:58;101022.19;;;5.79;77.86
70900;BME280;67902;52.154;5.430;2023-04-15T02:48:25;101021.16;;;5.80;77.46
70900;BME280;67902;52.154;5.430;2023-04-15T02:50:52;101015.78;;;5.80;78.15
70900;BME280;67902;52.154;5.430;2023-04-15T02:53:18;101023.44;;;5.90;78.69
70900;BME280;67902;52.154;5.430;2023-04-15T02:55:45;101029.03;;;5.89;78.73
70900;BME280;67902;52.154;5.430;2023-04-15T02:58:11;101029.59;;;5.84;78.20
70900;BME280;67902;52.154;5.430;2023-04-15T03:00:38;101033.75;;;5.73;78.54
70900;BME280;67902;52.154;5.430;2023-04-15T03:03:04;101040.19;;;5.66;79.72
70900;BME280;67902;52.154;5.430;2023-04-15T03:05:32;101037.28;;;5.67;79.58
70900;BME280;67902;52.154;5.430;2023-04-15T03:07:58;101038.09;;;5.68;79.71
70900;BME280;67902;52.154;5.430;2023-04-15T03:10:26;101036.66;;;5.65;79.07
70900;BME280;67902;52.154;5.430;2023-04-15T03:12:53;101040.59;;;5.63;79.65
70900;BME280;67902;52.154;5.430;2023-04-15T03:15:19;101045.31;;;5.67;79.95
70900;BME280;67902;52.154;5.430;2023-04-15T03:17:46;101042.44;;;5.75;79.71
70900;BME280;67902;52.154;5.430;2023-04-15T03:20:14;101046.56;;;5.71;80.17
70900;BME280;67902;52.154;5.430;2023-04-15T03:22:42;101045.94;;;5.76;79.92
70900;BME280;67902;52.154;5.430;2023-04-15T03:25:08;101050.28;;;5.77;80.62
70900;BME280;67902;52.154;5.430;2023-04-15T03:27:35;101036.25;;;5.75;80.45
70900;BME280;67902;52.154;5.430;2023-04-15T03:30:01;101043.66;;;5.73;80.02
70900;BME280;67902;52.154;5.430;2023-04-15T03:32:28;101042.22;;;5.70;79.98
70900;BME280;67902;52.154;5.430;2023-04-15T03:34:55;101047.81;;;5.75;80.02
70900;BME280;67902;52.154;5.430;2023-04-15T03:37:21;101043.88;;;5.65;79.23
70900;BME280;67902;52.154;5.430;2023-04-15T03:39:47;101054.63;;;5.52;79.74
70900;BME280;67902;52.154;5.430;2023-04-15T03:42:13;101047.63;;;5.44;80.00
70900;BME280;67902;52.154;5.430;2023-04-15T03:44:40;101054.63;;;5.45;80.22
70900;BME280;67902;52.154;5.430;2023-04-15T03:47:07;101065.34;;;5.45;80.19
70900;BME280;67902;52.154;5.430;2023-04-15T03:49:34;101060.81;;;5.39;80.73
70900;BME280;67902;52.154;5.430;2023-04-15T03:52:01;101068.25;;;5.37;80.23
70900;BME280;67902;52.154;5.430;2023-04-15T03:54:27;101072.38;;;5.26;80.81
70900;BME280;67902;52.154;5.430;2023-04-15T03:56:54;101074.84;;;5.28;81.13
70900;BME280;67902;52.154;5.430;2023-04-15T03:59:21;101063.47;;;5.26;81.50
70900;BME280;67902;52.154;5.430;2023-04-15T04:01:48;101083.28;;;5.25;81.30
70900;BME280;67902;52.154;5.430;2023-04-15T04:04:14;101075.03;;;5.20;81.75
70900;BME280;67902;52.154;5.430;2023-04-15T04:06:41;101076.69;;;5.21;82.12
70900;BME280;67902;52.154;5.430;2023-04-15T04:09:08;101091.13;;;5.20;82.27
70900;BME280;67902;52.154;5.430;2023-04-15T04:11:34;101090.50;;;5.18;82.19
70900;BME280;67902;52.154;5.430;2023-04-15T04:14:00;101098.16;;;5.21;82.57
70900;BME280;67902;52.154;5.430;2023-04-15T04:16:27;101095.47;;;5.21;82.58
70900;BME280;67902;52.154;5.430;2023-04-15T04:18:54;101100.00;;;5.20;82.52
70900;BME280;67902;52.154;5.430;2023-04-15T04:21:20;101101.25;;;5.18;82.60
70900;BME280;67902;52.154;5.430;2023-04-15T04:23:47;101101.66;;;5.15;82.76
70900;BME280;67902;52.154;5.430;2023-04-15T04:26:13;101099.19;;;5.13;83.32
70900;BME280;67902;52.154;5.430;2023-04-15T04:28:39;101101.22;;;5.11;83.25
70900;BME280;67902;52.154;5.430;2023-04-15T04:31:06;101111.13;;;5.11;83.55
70900;BME280;67902;52.154;5.430;2023-04-15T04:33:32;101113.59;;;5.06;83.12
70900;BME280;67902;52.154;5.430;2023-04-15T04:35:59;101115.22;;;5.00;83.76
70900;BME280;67902;52.154;5.430;2023-04-15T04:38:25;101114.81;;;4.97;83.56
70900;BME280;67902;52.154;5.430;2023-04-15T04:40:52;101118.97;;;4.99;83.94
70900;BME280;67902;52.154;5.430;2023-04-15T04:43:18;101124.31;;;4.99;84.08
70900;BME280;67902;52.154;5.430;2023-04-15T04:45:44;101129.47;;;5.01;84.89
70900;BME280;67902;52.154;5.430;2023-04-15T04:48:11;101142.47;;;4.97;84.37
70900;BME280;67902;52.154;5.430;2023-04-15T04:50:37;101143.06;;;4.93;84.54
70900;BME280;67902;52.154;5.430;2023-04-15T04:53:04;101146.97;;;4.90;84.29
70900;BME280;67902;52.154;5.430;2023-04-15T04:55:30;101150.09;;;4.94;84.36
70900;BME280;67902;52.154;5.430;2023-04-15T04:57:57;101150.09;;;4.94;84.39
70900;BME280;67902;52.154;5.430;2023-04-15T05:00:23;101155.06;;;4.97;84.55
70900;BME280;67902;52.154;5.430;2023-04-15T05:02:50;101161.44;;;4.96;84.56
70900;BME280;67902;52.154;5.430;2023-04-15T05:05:17;101161.06;;;4.99;84.74
70900;BME280;67902;52.154;5.430;2023-04-15T05:07:43;101168.06;;;5.00;84.71
70900;BME280;67902;52.154;5.430;2023-04-15T05:10:09;101164.34;;;5.01;85.09
70900;BME280;67902;52.154;5.430;2023-04-15T05:12:36;101170.16;;;5.04;84.88
70900;BME280;67902;52.154;5.430;2023-04-15T05:15:05;101174.31;;;5.07;84.97
70900;BME280;67902;52.154;5.430;2023-04-15T05:17:31;101186.94;;;5.13;84.65
70900;BME280;67902;52.154;5.430;2023-04-15T05:20:01;101182.78;;;5.17;84.79
70900;BME280;67902;52.154;5.430;2023-04-15T05:22:28;101185.09;;;5.20;85.10
70900;BME280;67902;52.154;5.430;2023-04-15T05:24:54;101191.72;;;5.24;84.98
70900;BME280;67902;52.154;5.430;2023-04-15T05:27:21;101192.13;;;5.21;84.66
70900;BME280;67902;52.154;5.430;2023-04-15T05:29:49;101203.28;;;5.24;84.47
70900;BME280;67902;52.154;5.430;2023-04-15T05:32:15;101203.94;;;5.33;84.98
70900;BME280;67902;52.154;5.430;2023-04-15T05:34:42;101203.16;;;5.46;84.53
70900;BME280;67902;52.154;5.430;2023-04-15T05:37:09;101208.16;;;5.55;84.09
70900;BME280;67902;52.154;5.430;2023-04-15T05:39:35;101211.25;;;5.59;84.41
70900;BME280;67902;52.154;5.430;2023-04-15T05:42:02;101219.94;;;5.67;84.42
70900;BME280;67902;52.154;5.430;2023-04-15T05:44:28;101223.69;;;5.73;84.11
70900;BME280;67902;52.154;5.430;2023-04-15T05:46:55;101226.78;;;5.76;83.98
70900;BME280;67902;52.154;5.430;2023-04-15T05:49:22;101228.47;;;5.77;83.64
70900;BME280;67902;52.154;5.430;2023-04-15T05:51:48;101232.38;;;5.75;83.74
70900;BME280;67902;52.154;5.430;2023-04-15T05:54:14;101230.28;;;5.70;84.43
70900;BME280;67902;52.154;5.430;2023-04-15T05:56:43;101242.69;;;5.71;84.14
70900;BME280;67902;52.154;5.430;2023-04-15T05:59:10;101232.56;;;5.73;84.55
70900;BME280;67902;52.154;5.430;2023-04-15T06:01:36;101238.59;;;5.82;84.54
70900;BME280;67902;52.154;5.430;2023-04-15T06:04:03;101245.41;;;5.84;84.00
70900;BME280;67902;52.154;5.430;2023-04-15T06:06:30;101248.09;;;5.84;83.88
70900;BME280;67902;52.154;5.430;2023-04-15T06:08:57;101248.56;;;5.88;84.05
70900;BME280;67902;52.154;5.430;2023-04-15T06:11:24;101264.31;;;5.98;84.46
70900;BME280;67902;52.154;5.430;2023-04-15T06:13:51;101258.53;;;6.14;83.74
70900;BME280;67902;52.154;5.430;2023-04-15T06:16:18;101270.97;;;6.28;83.89
70900;BME280;67902;52.154;5.430;2023-04-15T06:18:44;101271.41;;;6.51;83.28
70900;BME280;67902;52.154;5.430;2023-04-15T06:21:11;101276.16;;;6.75;83.56
70900;BME280;67902;52.154;5.430;2023-04-15T06:23:37;101275.47;;;6.99;82.15
70900;BME280;67902;52.154;5.430;2023-04-15T06:26:06;101277.72;;;7.22;81.91
70900;BME280;67902;52.154;5.430;2023-04-15T06:28:33;101274.44;;;7.71;81.37
70900;BME280;67902;52.154;5.430;2023-04-15T06:30:59;101281.69;;;8.08;80.19
70900;BME280;67902;52.154;5.430;2023-04-15T06:33:27;101295.31;;;8.20;79.04
70900;BME280;67902;52.154;5.430;2023-04-15T06:35:53;101294.50;;;8.20;79.77
70900;BME280;67902;52.154;5.430;2023-04-15T06:38:20;101292.78;;;8.32;79.78
70900;BME280;67902;52.154;5.430;2023-04-15T06:40:46;101296.97;;;8.21;79.30
70900;BME280;67902;52.154;5.430;2023-04-15T06:43:13;101300.28;;;8.30;79.17
70900;BME280;67902;52.154;5.430;2023-04-15T06:45:39;101308.53;;;8.35;79.44
70900;BME280;67902;52.154;5.430;2023-04-15T06:48:05;101312.03;;;8.42;79.57
70900;BME280;67902;52.154;5.430;2023-04-15T06:50:32;101320.19;;;8.60;79.92
70900;BME280;67902;52.154;5.430;2023-04-15T06:52:58;101319.81;;;9.06;79.11
70900;BME280;67902;52.154;5.430;2023-04-15T06:55:25;101325.16;;;9.30;78.65
70900;BME280;67902;52.154;5.430;2023-04-15T06:57:51;101334.09;;;9.49;78.10
70900;BME280;67902;52.154;5.430;2023-04-15T07:00:18;101326.84;;;9.68;76.73
70900;BME280;67902;52.154;5.430;2023-04-15T07:02:44;101333.28;;;9.85;77.00
70900;BME280;67902;52.154;5.430;2023-04-15T07:05:12;101343.03;;;10.04;76.06
70900;BME280;67902;52.154;5.430;2023-04-15T07:07:38;101351.44;;;10.14;75.06
70900;BME280;67902;52.154;5.430;2023-04-15T07:10:05;101349.50;;;10.21;75.15
70900;BME280;67902;52.154;5.430;2023-04-15T07:12:32;101345.38;;;10.30;74.81
70900;BME280;67902;52.154;5.430;2023-04-15T07:14:58;101355.56;;;10.17;74.54
70900;BME280;67902;52.154;5.430;2023-04-15T07:17:24;101359.31;;;9.98;74.75
70900;BME280;67902;52.154;5.430;2023-04-15T07:19:51;101361.50;;;9.89;75.16
70900;BME280;67902;52.154;5.430;2023-04-15T07:22:17;101362.13;;;9.73;74.99
70900;BME280;67902;52.154;5.430;2023-04-15T07:24:45;101369.19;;;9.74;75.68
70900;BME280;67902;52.154;5.430;2023-04-15T07:27:11;101374.53;;;9.99;75.68
70900;BME280;67902;52.154;5.430;2023-04-15T07:29:38;101373.72;;;10.28;74.89
70900;BME280;67902;52.154;5.430;2023-04-15T07:32:04;101384.19;;;10.95;73.25
70900;BME280;67902;52.154;5.430;2023-04-15T07:34:31;101382.09;;;11.67;72.29
70900;BME280;67902;52.154;5.430;2023-04-15T07:36:58;101385.00;;;12.12;69.70
70900;BME280;67902;52.154;5.430;2023-04-15T07:39:24;101380.53;;;12.62;67.21
70900;BME280;67902;52.154;5.430;2023-04-15T07:41:51;101385.69;;;13.09;66.74
70900;BME280;67902;52.154;5.430;2023-04-15T07:44:17;101388.81;;;13.17;64.42
70900;BME280;67902;52.154;5.430;2023-04-15T07:46:43;101391.59;;;13.39;64.99
70900;BME280;67902;52.154;5.430;2023-04-15T07:49:10;101396.56;;;13.42;63.22
70900;BME280;67902;52.154;5.430;2023-04-15T07:51:36;101402.47;;;13.06;62.31
70900;BME280;67902;52.154;5.430;2023-04-15T07:54:03;101402.91;;;13.14;63.71
70900;BME280;67902;52.154;5.430;2023-04-15T07:56:29;101397.66;;;13.41;61.60
70900;BME280;67902;52.154;5.430;2023-04-15T07:58:56;101405.31;;;13.27;60.75
70900;BME280;67902;52.154;5.430;2023-04-15T08:01:22;101411.41;;;13.18;63.38
70900;BME280;67902;52.154;5.430;2023-04-15T08:03:49;101412.59;;;13.22;62.25
70900;BME280;67902;52.154;5.430;2023-04-15T08:06:16;101410.91;;;13.21;62.14
70900;BME280;67902;52.154;5.430;2023-04-15T08:08:42;101421.66;;;13.27;61.22
70900;BME280;67902;52.154;5.430;2023-04-15T08:11:09;101415.13;;;13.28;62.25
70900;BME280;67902;52.154;5.430;2023-04-15T08:13:35;101416.63;;;13.36;62.99
70900;BME280;67902;52.154;5.430;2023-04-15T08:18:48;101420.84;;;14.25;60.38
70900;BME280;67902;52.154;5.430;2023-04-15T08:21:16;101428.19;;;14.25;59.90
70900;BME280;67902;52.154;5.430;2023-04-15T08:23:44;101424.78;;;14.13;58.74
70900;BME280;67902;52.154;5.430;2023-04-15T08:26:11;101433.16;;;13.89;58.45
70900;BME280;67902;52.154;5.430;2023-04-15T08:28:39;101433.31;;;13.78;58.45
70900;BME280;67902;52.154;5.430;2023-04-15T08:31:06;101432.16;;;13.95;57.95
70900;BME280;67902;52.154;5.430;2023-04-15T08:33:33;101435.50;;;14.41;61.19
70900;BME280;67902;52.154;5.430;2023-04-15T08:36:00;101435.56;;;14.46;59.82
70900;BME280;67902;52.154;5.430;2023-04-15T08:38:26;101441.81;;;14.68;58.14
70900;BME280;67902;52.154;5.430;2023-04-15T08:40:53;101441.47;;;14.86;57.46
70900;BME280;67902;52.154;5.430;2023-04-15T08:43:23;101441.66;;;14.53;56.79
70900;BME280;67902;52.154;5.430;2023-04-15T08:45:51;101456.75;;;14.39;58.57
70900;BME280;67902;52.154;5.430;2023-04-15T08:48:18;101468.75;;;14.43;58.67
70900;BME280;67902;52.154;5.430;2023-04-15T08:50:46;101472.22;;;14.82;57.65
70900;BME280;67902;52.154;5.430;2023-04-15T08:53:13;101468.47;;;15.15;58.56
70900;BME280;67902;52.154;5.430;2023-04-15T08:55:44;101469.75;;;15.07;57.18
70900;BME280;67902;52.154;5.430;2023-04-15T08:58:12;101464.59;;;15.10;56.15
70900;BME280;67902;52.154;5.430;2023-04-15T09:00:39;101474.50;;;14.90;57.07
70900;BME280;67902;52.154;5.430;2023-04-15T09:03:06;101473.50;;;14.74;56.45
70900;BME280;67902;52.154;5.430;2023-04-15T09:05:34;101490.63;;;14.96;57.45
70900;BME280;67902;52.154;5.430;2023-04-15T09:08:01;101480.56;;;15.24;55.50
70900;BME280;67902;52.154;5.430;2023-04-15T09:10:28;101487.03;;;15.18;56.63
70900;BME280;67902;52.154;5.430;2023-04-15T09:12:55;101487.50;;;15.09;55.64
70900;BME280;67902;52.154;5.430;2023-04-15T09:15:25;101495.84;;;14.98;56.16
70900;BME280;67902;52.154;5.430;2023-04-15T09:17:57;101499.81;;;15.12;55.94
70900;BME280;67902;52.154;5.430;2023-04-15T09:20:24;101506.25;;;15.01;56.56
70900;BME280;67902;52.154;5.430;2023-04-15T09:22:50;101500.41;;;15.46;56.04
70900;BME280;67902;52.154;5.430;2023-04-15T09:27:47;101503.88;;;15.09;55.00
70900;BME280;67902;52.154;5.430;2023-04-15T09:30:14;101514.63;;;14.94;55.30
70900;BME280;67902;52.154;5.430;2023-04-15T09:33:08;101529.19;;;15.05;56.47
70900;BME280;67902;52.154;5.430;2023-04-15T09:35:35;101525.56;;;15.21;55.63
70900;BME280;67902;52.154;5.430;2023-04-15T09:38:04;101522.25;;;15.19;55.80
70900;BME280;67902;52.154;5.430;2023-04-15T09:40:40;101523.88;;;14.93;56.91
70900;BME280;67902;52.154;5.430;2023-04-15T09:43:08;101527.72;;;14.71;56.07
70900;BME280;67902;52.154;5.430;2023-04-15T09:45:35;101535.19;;;14.59;56.09
70900;BME280;67902;52.154;5.430;2023-04-15T09:48:24;101530.81;;;14.79;57.65
70900;BME280;67902;52.154;5.430;2023-04-15T09:50:59;101526.69;;;14.77;55.31
70900;BME280;67902;52.154;5.430;2023-04-15T09:53:27;101530.50;;;14.76;55.67
70900;BME280;67902;52.154;5.430;2023-04-15T09:55:58;101535.75;;;14.82;54.79
70900;BME280;67902;52.154;5.430;2023-04-15T09:58:27;101535.84;;;14.87;55.64
70900;BME280;67902;52.154;5.430;2023-04-15T10:00:55;101537.13;;;15.06;55.52
70900;BME280;67902;52.154;5.430;2023-04-15T10:03:24;101535.44;;;15.54;55.43
70900;BME280;67902;52.154;5.430;2023-04-15T10:05:53;101538.81;;;15.66;55.08
70900;BME280;67902;52.154;5.430;2023-04-15T10:08:22;101536.75;;;15.83;53.55
70900;BME280;67902;52.154;5.430;2023-04-15T10:10:50;101548.47;;;15.47;53.61
70900;BME280;67902;52.154;5.430;2023-04-15T10:13:19;101550.09;;;15.75;52.56
70900;BME280;67902;52.154;5.430;2023-04-15T10:15:51;101557.47;;;16.11;53.30
70900;BME280;67902;52.154;5.430;2023-04-15T10:18:22;101550.59;;;16.50;53.74
70900;BME280;67902;52.154;5.430;2023-04-15T10:20:51;101557.25;;;16.64;52.38
70900;BME280;67902;52.154;5.430;2023-04-15T10:23:18;101560.03;;;16.79;51.84
70900;BME280;67902;52.154;5.430;2023-04-15T10:25:46;101554.88;;;16.83;51.09
70900;BME280;67902;52.154;5.430;2023-04-15T10:28:15;101560.13;;;17.00;52.26
70900;BME280;67902;52.154;5.430;2023-04-15T10:30:42;101548.47;;;17.55;52.45
70900;BME280;67902;52.154;5.430;2023-04-15T10:33:09;101556.16;;;17.88;50.46
70900;BME280;67902;52.154;5.430;2023-04-15T10:35:36;101564.09;;;17.74;49.83
70900;BME280;67902;52.154;5.430;2023-04-15T10:41:23;101568.16;;;17.42;49.93
70900;BME280;67902;52.154;5.430;2023-04-15T10:43:54;101575.03;;;16.67;50.15
70900;BME280;67902;52.154;5.430;2023-04-15T10:46:23;101573.47;;;15.97;51.76
70900;BME280;67902;52.154;5.430;2023-04-15T10:48:51;101578.25;;;15.48;52.25
70900;BME280;67902;52.154;5.430;2023-04-15T10:51:30;101577.84;;;15.66;53.09
70900;BME280;67902;52.154;5.430;2023-04-15T10:54:00;101579.38;;;16.21;52.86
70900;BME280;67902;52.154;5.430;2023-04-15T10:56:28;101582.09;;;16.58;51.92
70900;BME280;67902;52.154;5.430;2023-04-15T10:58:57;101590.19;;;16.48;51.50
70900;BME280;67902;52.154;5.430;2023-04-15T11:07:37;101594.44;;;16.23;52.46
70900;BME280;67902;52.154;5.430;2023-04-15T11:13:24;101592.63;;;16.39;51.88
70900;BME280;67902;52.154;5.430;2023-04-15T11:15:55;101590.13;;;15.96;51.77
70900;BME280;67902;52.154;5.430;2023-04-15T11:18:25;101604.50;;;15.33;52.57
70900;BME280;67902;52.154;5.430;2023-04-15T11:20:55;101606.06;;;15.24;53.74
70900;BME280;67902;52.154;5.430;2023-04-15T11:23:33;101601.97;;;15.75;52.72
70900;BME280;67902;52.154;5.430;2023-04-15T11:26:02;101593.72;;;16.01;51.58
70900;BME280;67902;52.154;5.430;2023-04-15T11:28:31;101604.31;;;16.30;51.25
70900;BME280;67902;52.154;5.430;2023-04-15T11:31:05;101609.81;;;16.35;52.81
70900;BME280;67902;52.154;5.430;2023-04-15T11:33:31;101609.84;;;16.40;52.29
70900;BME280;67902;52.154;5.430;2023-04-15T11:35:58;101603.66;;;16.17;52.59
70900;BME280;67902;52.154;5.430;2023-04-15T11:38:24;101604.78;;;16.16;51.85
70900;BME280;67902;52.154;5.430;2023-04-15T11:40:51;101595.63;;;16.01;51.62
70900;BME280;67902;52.154;5.430;2023-04-15T11:43:21;101606.53;;;16.33;53.59
70900;BME280;67902;52.154;5.430;2023-04-15T11:45:52;101604.03;;;17.50;51.84
70900;BME280;67902;52.154;5.430;2023-04-15T11:48:20;101614.78;;;18.17;48.41
70900;BME280;67902;52.154;5.430;2023-04-15T11:50:55;101607.63;;;18.31;47.08
70900;BME280;67902;52.154;5.430;2023-04-15T11:53:22;101614.81;;;18.07;49.27
70900;BME280;67902;52.154;5.430;2023-04-15T11:55:50;101619.72;;;17.95;48.44
70900;BME280;67902;52.154;5.430;2023-04-15T11:58:20;101614.78;;;17.97;47.56
70900;BME280;67902;52.154;5.430;2023-04-15T12:00:58;101614.78;;;17.77;49.21
70900;BME280;67902;52.154;5.430;2023-04-15T12:03:46;101637.59;;;17.10;48.90
70900;BME280;67902;52.154;5.430;2023-04-15T12:11:46;101635.06;;;18.16;48.50
70900;BME280;67902;52.154;5.430;2023-04-15T12:16:48;101648.22;;;18.55;46.98
70900;BME280;67902;52.154;5.430;2023-04-15T12:19:28;101654.81;;;18.38;46.34
70900;BME280;67902;52.154;5.430;2023-04-15T12:22:03;101648.78;;;18.31;47.41
70900;BME280;67902;52.154;5.430;2023-04-15T12:24:31;101647.31;;;17.43;47.01
70900;BME280;67902;52.154;5.430;2023-04-15T12:27:06;101655.56;;;16.86;49.21
70900;BME280;67902;52.154;5.430;2023-04-15T12:29:34;101670.13;;;16.55;49.22
70900;BME280;67902;52.154;5.430;2023-04-15T12:32:11;101669.66;;;15.99;50.05
70900;BME280;67902;52.154;5.430;2023-04-15T12:34:43;101669.94;;;16.03;51.42
70900;BME280;67902;52.154;5.430;2023-04-15T12:37:11;101670.13;;;16.23;50.88
70900;BME280;67902;52.154;5.430;2023-04-15T12:39:43;101677.41;;;16.44;52.81
70900;BME280;67902;52.154;5.430;2023-04-15T12:42:10;101677.59;;;17.26;48.72
70900;BME280;67902;52.154;5.430;2023-04-15T12:44:38;101677.34;;;16.76;49.66
70900;BME280;67902;52.154;5.430;2023-04-15T12:47:05;101682.88;;;16.12;51.53
70900;BME280;67902;52.154;5.430;2023-04-15T12:49:32;101678.69;;;16.37;52.21
70900;BME280;67902;52.154;5.430;2023-04-15T12:52:00;101696.03;;;16.15;52.07
70900;BME280;67902;52.154;5.430;2023-04-15T12:54:27;101687.84;;;15.40;53.35
70900;BME280;67902;52.154;5.430;2023-04-15T12:56:55;101705.81;;;15.15;54.56
70900;BME280;67902;52.154;5.430;2023-04-15T12:59:21;101704.53;;;15.44;54.46
70900;BME280;67902;52.154;5.430;2023-04-15T13:01:50;101691.38;;;15.84;52.88
70900;BME280;67902;52.154;5.430;2023-04-15T13:04:18;101707.78;;;15.89;52.23
70900;BME280;67902;52.154;5.430;2023-04-15T13:06:45;101710.78;;;15.18;53.21
70900;BME280;67902;52.154;5.430;2023-04-15T13:09:11;101723.34;;;15.02;54.85
70900;BME280;67902;52.154;5.430;2023-04-15T13:11:38;101720.53;;;14.75;56.23
70900;BME280;67902;52.154;5.430;2023-04-15T13:14:06;101725.69;;;14.93;57.28
70900;BME280;67902;52.154;5.430;2023-04-15T13:16:33;101726.91;;;14.64;56.66
70900;BME280;67902;52.154;5.430;2023-04-15T13:19:01;101737.78;;;14.31;57.86
70900;BME280;67902;52.154;5.430;2023-04-15T13:21:29;101744.00;;;13.98;58.91
70900;BME280;67902;52.154;5.430;2023-04-15T13:23:56;101738.84;;;13.85;59.26